sensor_id;sensor_type;location;lat;lon;timestamp;pressure;altitude;pressure_sealevel;temperature;humidity
66398;BME280;54877;51.504;3.894;2024-01-06T00:00:18;100499.31;;;10.20;76.27
66398;BME280;54877;51.504;3.894;2024-01-06T00:02:46;100506.31;;;10.21;76.22
66398;BME280;54877;51.504;3.894;2024-01-06T00:05:11;100502.88;;;10.19;76.44
66398;BME280;54877;51.504;3.894;2024-01-06T00:07:36;100504.00;;;10.15;76.20
66398;BME280;54877;51.504;3.894;2024-01-06T00:10:02;100505.63;;;10.18;76.05
66398;BME280;54877;51.504;3.894;2024-01-06T00:12:28;100510.81;;;10.19;76.06
66398;BME280;54877;51.504;3.894;2024-01-06T00:14:53;100508.34;;;10.16;76.24
66398;BME280;54877;51.504;3.894;2024-01-06T00:17:18;100507.34;;;10.19;76.26
66398;BME280;54877;51.504;3.894;2024-01-06T00:19:44;100505.53;;;10.19;76.60
66398;BME280;54877;51.504;3.894;2024-01-06T00:22:10;100513.22;;;10.24;75.97
66398;BME280;54877;51.504;3.894;2024-01-06T00:24:36;100513.94;;;10.27;75.75
66398;BME280;54877;51.504;3.894;2024-01-06T00:27:01;100517.34;;;10.29;75.61
66398;BME280;54877;51.504;3.894;2024-01-06T00:29:26;100522.31;;;10.35;75.23
66398;BME280;54877;51.504;3.894;2024-01-06T00:31:52;100519.88;;;10.31;75.19
66398;BME280;54877;51.504;3.894;2024-01-06T00:34:17;100525.59;;;10.23;75.19
66398;BME280;54877;51.504;3.894;2024-01-06T00:36:42;100526.03;;;10.31;75.37
66398;BME280;54877;51.504;3.894;2024-01-06T00:39:08;100528.16;;;10.25;75.36
66398;BME280;54877;51.504;3.894;2024-01-06T00:41:33;100530.72;;;10.26;75.49
66398;BME280;54877;51.504;3.894;2024-01-06T00:43:58;100533.69;;;10.20;75.62
66398;BME280;54877;51.504;3.894;2024-01-06T00:46:24;100539.00;;;10.20;75.61
66398;BME280;54877;51.504;3.894;2024-01-06T00:48:49;100540.88;;;10.18;75.83
66398;BME280;54877;51.504;3.894;2024-01-06T00:51:14;100548.47;;;10.07;76.09
66398;BME280;54877;51.504;3.894;2024-01-06T00:53:40;100544.59;;;10.14;75.86
66398;BME280;54877;51.504;3.894;2024-01-06T00:56:05;100557.13;;;10.11;75.89
66398;BME280;54877;51.504;3.894;2024-01-06T00:58:30;100550.88;;;10.12;75.97
66398;BME280;54877;51.504;3.894;2024-01-06T01:00:56;100545.41;;;10.16;75.76
66398;BME280;54877;51.504;3.894;2024-01-06T01:03:21;100553.59;;;10.10;75.65
66398;BME280;54877;51.504;3.894;2024-01-06T01:05:46;100554.38;;;10.12;75.72
66398;BME280;54877;51.504;3.894;2024-01-06T01:08:12;100560.59;;;10.11;74.96
66398;BME280;54877;51.504;3.894;2024-01-06T01:10:37;100566.38;;;10.19;74.56
66398;BME280;54877;51.504;3.894;2024-01-06T01:13:03;100571.50;;;10.22;74.49
66398;BME280;54877;51.504;3.894;2024-01-06T01:15:28;100567.78;;;10.26;74.00
66398;BME280;54877;51.504;3.894;2024-01-06T01:17:54;100572.19;;;10.26;73.65
66398;BME280;54877;51.504;3.894;2024-01-06T01:20:19;100585.97;;;10.32;73.49
66398;BME280;54877;51.504;3.894;2024-01-06T01:22:44;100594.69;;;10.34;73.32
66398;BME280;54877;51.504;3.894;2024-01-06T01:25:10;100596.22;;;10.38;73.02
66398;BME280;54877;51.504;3.894;2024-01-06T01:27:37;100595.00;;;10.28;72.87
66398;BME280;54877;51.504;3.894;2024-01-06T01:30:02;100600.38;;;10.27;72.65
66398;BME280;54877;51.504;3.894;2024-01-06T01:32:28;100603.25;;;10.22;72.96
66398;BME280;54877;51.504;3.894;2024-01-06T01:34:53;100610.09;;;10.26;73.03
66398;BME280;54877;51.504;3.894;2024-01-06T01:37:19;100612.34;;;10.34;72.88
66398;BME280;54877;51.504;3.894;2024-01-06T01:39:45;100620.13;;;10.20;72.83
66398;BME280;54877;51.504;3.894;2024-01-06T01:42:10;100626.59;;;10.14;72.43
66398;BME280;54877;51.504;3.894;2024-01-06T01:44:35;100614.59;;;10.07;72.50
66398;BME280;54877;51.504;3.894;2024-01-06T01:47:02;100618.78;;;10.11;72.20
66398;BME280;54877;51.504;3.894;2024-01-06T01:49:29;100623.16;;;10.12;72.43
66398;BME280;54877;51.504;3.894;2024-01-06T01:51:54;100633.81;;;10.11;72.35
66398;BME280;54877;51.504;3.894;2024-01-06T01:54:20;100628.75;;;10.06;72.24
66398;BME280;54877;51.504;3.894;2024-01-06T01:56:45;100635.75;;;10.07;72.36
66398;BME280;54877;51.504;3.894;2024-01-06T01:59:12;100632.34;;;10.05;71.97
66398;BME280;54877;51.504;3.894;2024-01-06T02:01:41;100641.81;;;10.09;72.21
66398;BME280;54877;51.504;3.894;2024-01-06T02:04:07;100635.50;;;10.13;72.26
66398;BME280;54877;51.504;3.894;2024-01-06T02:06:33;100637.78;;;10.19;72.37
66398;BME280;54877;51.504;3.894;2024-01-06T02:08:58;100636.09;;;10.18;72.25
66398;BME280;54877;51.504;3.894;2024-01-06T02:11:24;100637.78;;;10.19;72.17
66398;BME280;54877;51.504;3.894;2024-01-06T02:13:49;100647.59;;;10.17;72.26
66398;BME280;54877;51.504;3.894;2024-01-06T02:16:14;100649.47;;;10.15;71.78
66398;BME280;54877;51.504;3.894;2024-01-06T02:18:39;100652.91;;;10.17;72.00
66398;BME280;54877;51.504;3.894;2024-01-06T02:21:05;100664.34;;;10.18;72.12
66398;BME280;54877;51.504;3.894;2024-01-06T02:23:33;100656.66;;;10.13;72.12
66398;BME280;54877;51.504;3.894;2024-01-06T02:26:00;100661.78;;;10.16;71.88
66398;BME280;54877;51.504;3.894;2024-01-06T02:28:25;100669.91;;;10.12;71.69
66398;BME280;54877;51.504;3.894;2024-01-06T02:30:50;100672.78;;;10.07;71.97
66398;BME280;54877;51.504;3.894;2024-01-06T02:33:16;100668.00;;;10.15;71.83
66398;BME280;54877;51.504;3.894;2024-01-06T02:35:41;100680.38;;;10.15;71.78
66398;BME280;54877;51.504;3.894;2024-01-06T02:38:07;100672.63;;;10.10;71.68
66398;BME280;54877;51.504;3.894;2024-01-06T02:40:33;100677.94;;;10.10;71.29
66398;BME280;54877;51.504;3.894;2024-01-06T02:42:59;100689.16;;;10.15;71.52
66398;BME280;54877;51.504;3.894;2024-01-06T02:45:24;100685.78;;;10.12;71.25
66398;BME280;54877;51.504;3.894;2024-01-06T02:47:50;100686.53;;;10.15;71.38
66398;BME280;54877;51.504;3.894;2024-01-06T02:50:15;100693.53;;;10.16;71.23
66398;BME280;54877;51.504;3.894;2024-01-06T02:52:40;100693.81;;;10.10;71.24
66398;BME280;54877;51.504;3.894;2024-01-06T02:55:06;100695.38;;;10.14;70.91
66398;BME280;54877;51.504;3.894;2024-01-06T02:57:31;100698.47;;;10.05;70.33
66398;BME280;54877;51.504;3.894;2024-01-06T02:59:57;100695.81;;;10.05;70.52
66398;BME280;54877;51.504;3.894;2024-01-06T03:02:22;100701.03;;;10.07;70.19
66398;BME280;54877;51.504;3.894;2024-01-06T03:04:48;100713.53;;;10.03;70.11
66398;BME280;54877;51.504;3.894;2024-01-06T03:07:13;100711.19;;;9.97;70.01
66398;BME280;54877;51.504;3.894;2024-01-06T03:09:38;100707.09;;;9.73;70.31
66398;BME280;54877;51.504;3.894;2024-01-06T03:12:05;100707.81;;;9.76;70.27
66398;BME280;54877;51.504;3.894;2024-01-06T03:14:32;100709.59;;;9.76;69.78
66398;BME280;54877;51.504;3.894;2024-01-06T03:16:58;100713.97;;;9.77;69.72
66398;BME280;54877;51.504;3.894;2024-01-06T03:19:24;100723.53;;;9.79;69.66
66398;BME280;54877;51.504;3.894;2024-01-06T03:21:52;100720.81;;;9.81;69.47
66398;BME280;54877;51.504;3.894;2024-01-06T03:24:17;100728.06;;;9.77;69.37
66398;BME280;54877;51.504;3.894;2024-01-06T03:26:43;100726.19;;;9.79;69.27
66398;BME280;54877;51.504;3.894;2024-01-06T03:29:08;100737.13;;;9.72;69.70
66398;BME280;54877;51.504;3.894;2024-01-06T03:31:33;100729.06;;;9.75;69.71
66398;BME280;54877;51.504;3.894;2024-01-06T03:33:58;100733.47;;;9.74;69.87
66398;BME280;54877;51.504;3.894;2024-01-06T03:36:24;100733.41;;;9.76;70.02
66398;BME280;54877;51.504;3.894;2024-01-06T03:38:50;100737.63;;;9.80;69.75
66398;BME280;54877;51.504;3.894;2024-01-06T03:41:15;100744.34;;;9.68;69.33
66398;BME280;54877;51.504;3.894;2024-01-06T03:43:40;100751.34;;;9.69;68.91
66398;BME280;54877;51.504;3.894;2024-01-06T03:46:06;100754.16;;;9.66;68.78
66398;BME280;54877;51.504;3.894;2024-01-06T03:48:31;100758.44;;;9.69;68.82
66398;BME280;54877;51.504;3.894;2024-01-06T03:50:57;100762.75;;;9.70;68.76
66398;BME280;54877;51.504;3.894;2024-01-06T03:53:23;100767.34;;;9.66;68.86
66398;BME280;54877;51.504;3.894;2024-01-06T03:55:49;100763.06;;;9.64;69.07
66398;BME280;54877;51.504;3.894;2024-01-06T03:58:14;100764.50;;;9.71;68.71
66398;BME280;54877;51.504;3.894;2024-01-06T04:00:39;100766.06;;;9.75;68.63
66398;BME280;54877;51.504;3.894;2024-01-06T04:03:05;100761.84;;;9.71;68.32
66398;BME280;54877;51.504;3.894;2024-01-06T04:05:31;100768.03;;;9.70;68.29
66398;BME280;54877;51.504;3.894;2024-01-06T04:07:57;100768.50;;;9.61;67.83
66398;BME280;54877;51.504;3.894;2024-01-06T04:10:22;100776.06;;;9.68;67.74
66398;BME280;54877;51.504;3.894;2024-01-06T04:12:47;100776.94;;;9.69;67.86
66398;BME280;54877;51.504;3.894;2024-01-06T04:15:13;100781.13;;;9.73;67.99
66398;BME280;54877;51.504;3.894;2024-01-06T04:17:38;100793.34;;;9.75;67.92
66398;BME280;54877;51.504;3.894;2024-01-06T04:20:03;100786.50;;;9.71;67.85
66398;BME280;54877;51.504;3.894;2024-01-06T04:22:29;100787.38;;;9.72;67.87
66398;BME280;54877;51.504;3.894;2024-01-06T04:24:55;100789.88;;;9.75;67.96
66398;BME280;54877;51.504;3.894;2024-01-06T04:27:20;100786.56;;;9.70;67.68
66398;BME280;54877;51.504;3.894;2024-01-06T04:29:46;100794.47;;;9.70;67.45
66398;BME280;54877;51.504;3.894;2024-01-06T04:32:11;100791.78;;;9.71;67.65
66398;BME280;54877;51.504;3.894;2024-01-06T04:34:36;100792.94;;;9.66;67.59
66398;BME280;54877;51.504;3.894;2024-01-06T04:37:02;100802.41;;;9.70;67.68
66398;BME280;54877;51.504;3.894;2024-01-06T04:39:27;100805.06;;;9.70;67.89
66398;BME280;54877;51.504;3.894;2024-01-06T04:41:52;100803.09;;;9.75;68.19
66398;BME280;54877;51.504;3.894;2024-01-06T04:44:21;100814.06;;;9.66;68.17
66398;BME280;54877;51.504;3.894;2024-01-06T04:46:47;100819.50;;;9.63;68.27
66398;BME280;54877;51.504;3.894;2024-01-06T04:49:12;100819.78;;;9.57;68.81
66398;BME280;54877;51.504;3.894;2024-01-06T04:51:37;100820.91;;;9.51;69.08
66398;BME280;54877;51.504;3.894;2024-01-06T04:54:03;100818.34;;;9.50;69.62
66398;BME280;54877;51.504;3.894;2024-01-06T04:56:28;100825.34;;;9.51;69.52
66398;BME280;54877;51.504;3.894;2024-01-06T04:58:53;100830.06;;;9.44;69.78
66398;BME280;54877;51.504;3.894;2024-01-06T05:01:19;100837.91;;;9.45;70.09
66398;BME280;54877;51.504;3.894;2024-01-06T05:03:45;100829.34;;;9.40;69.91
66398;BME280;54877;51.504;3.894;2024-01-06T05:06:10;100833.03;;;9.36;70.44
66398;BME280;54877;51.504;3.894;2024-01-06T05:08:35;100837.75;;;9.30;70.32
66398;BME280;54877;51.504;3.894;2024-01-06T05:11:03;100837.00;;;9.26;70.82
66398;BME280;54877;51.504;3.894;2024-01-06T05:13:30;100844.03;;;9.27;71.07
66398;BME280;54877;51.504;3.894;2024-01-06T05:15:55;100839.56;;;9.28;70.87
66398;BME280;54877;51.504;3.894;2024-01-06T05:18:20;100853.00;;;9.23;70.69
66398;BME280;54877;51.504;3.894;2024-01-06T05:20:46;100853.06;;;9.22;71.05
66398;BME280;54877;51.504;3.894;2024-01-06T05:23:11;100856.72;;;9.19;70.82
66398;BME280;54877;51.504;3.894;2024-01-06T05:25:37;100859.53;;;9.15;71.41
66398;BME280;54877;51.504;3.894;2024-01-06T05:28:05;100862.81;;;9.20;71.51
66398;BME280;54877;51.504;3.894;2024-01-06T05:30:30;100863.69;;;9.20;71.46
66398;BME280;54877;51.504;3.894;2024-01-06T05:32:55;100863.81;;;9.17;71.16
66398;BME280;54877;51.504;3.894;2024-01-06T05:35:21;100873.59;;;9.15;71.28
66398;BME280;54877;51.504;3.894;2024-01-06T05:37:46;100871.34;;;9.06;71.02
66398;BME280;54877;51.504;3.894;2024-01-06T05:40:12;100874.38;;;9.17;71.10
66398;BME280;54877;51.504;3.894;2024-01-06T05:42:38;100880.63;;;9.16;70.88
66398;BME280;54877;51.504;3.894;2024-01-06T05:45:03;100884.94;;;9.17;71.02
66398;BME280;54877;51.504;3.894;2024-01-06T05:47:29;100890.97;;;9.21;70.92
66398;BME280;54877;51.504;3.894;2024-01-06T05:49:55;100886.69;;;9.18;71.29
66398;BME280;54877;51.504;3.894;2024-01-06T05:52:20;100891.97;;;9.18;71.11
66398;BME280;54877;51.504;3.894;2024-01-06T05:54:46;100891.97;;;9.18;71.05
66398;BME280;54877;51.504;3.894;2024-01-06T05:57:11;100893.75;;;9.18;71.01
66398;BME280;54877;51.504;3.894;2024-01-06T05:59:36;100897.50;;;9.12;71.18
66398;BME280;54877;51.504;3.894;2024-01-06T06:02:02;100895.00;;;9.09;71.36
66398;BME280;54877;51.504;3.894;2024-01-06T06:04:27;100896.63;;;9.12;71.36
66398;BME280;54877;51.504;3.894;2024-01-06T06:06:52;100902.66;;;9.15;71.03
66398;BME280;54877;51.504;3.894;2024-01-06T06:09:18;100913.88;;;9.00;71.37
66398;BME280;54877;51.504;3.894;2024-01-06T06:11:45;100907.50;;;9.06;71.31
66398;BME280;54877;51.504;3.894;2024-01-06T06:14:11;100920.75;;;9.04;71.37
66398;BME280;54877;51.504;3.894;2024-01-06T06:16:37;100909.81;;;9.13;71.50
66398;BME280;54877;51.504;3.894;2024-01-06T06:19:02;100918.38;;;9.18;71.42
66398;BME280;54877;51.504;3.894;2024-01-06T06:21:28;100920.25;;;9.16;71.15
66398;BME280;54877;51.504;3.894;2024-01-06T06:23:53;100923.13;;;9.10;70.88
66398;BME280;54877;51.504;3.894;2024-01-06T06:26:19;100923.66;;;9.18;70.99
66398;BME280;54877;51.504;3.894;2024-01-06T06:28:44;100926.09;;;9.23;70.90
66398;BME280;54877;51.504;3.894;2024-01-06T06:31:09;100931.19;;;9.27;71.32
66398;BME280;54877;51.504;3.894;2024-01-06T06:33:35;100944.53;;;9.24;70.62
66398;BME280;54877;51.504;3.894;2024-01-06T06:36:00;100946.53;;;9.19;70.97
66398;BME280;54877;51.504;3.894;2024-01-06T06:38:26;100948.75;;;9.08;71.06
66398;BME280;54877;51.504;3.894;2024-01-06T06:40:52;100953.09;;;9.09;71.18
66398;BME280;54877;51.504;3.894;2024-01-06T06:43:17;100959.13;;;9.13;71.32
66398;BME280;54877;51.504;3.894;2024-01-06T06:45:42;100972.41;;;9.11;71.41
66398;BME280;54877;51.504;3.894;2024-01-06T06:48:08;100973.75;;;9.00;71.61
66398;BME280;54877;51.504;3.894;2024-01-06T06:50:33;100978.72;;;9.07;71.37
66398;BME280;54877;51.504;3.894;2024-01-06T06:52:59;100977.72;;;9.10;71.56
66398;BME280;54877;51.504;3.894;2024-01-06T06:55:25;100983.13;;;9.07;71.44
66398;BME280;54877;51.504;3.894;2024-01-06T06:57:52;100990.19;;;9.06;71.41
66398;BME280;54877;51.504;3.894;2024-01-06T07:00:17;100992.72;;;9.09;71.57
66398;BME280;54877;51.504;3.894;2024-01-06T07:02:43;100996.53;;;9.02;71.29
66398;BME280;54877;51.504;3.894;2024-01-06T07:05:08;100996.16;;;8.90;71.86
66398;BME280;54877;51.504;3.894;2024-01-06T07:07:34;101000.84;;;8.83;72.02
66398;BME280;54877;51.504;3.894;2024-01-06T07:10:02;101007.94;;;8.81;72.19
66398;BME280;54877;51.504;3.894;2024-01-06T07:12:31;101022.31;;;8.74;72.88
66398;BME280;54877;51.504;3.894;2024-01-06T07:14:56;101016.53;;;8.64;73.12
66398;BME280;54877;51.504;3.894;2024-01-06T07:17:23;101029.69;;;8.66;72.98
66398;BME280;54877;51.504;3.894;2024-01-06T07:19:49;101031.25;;;8.70;73.25
66398;BME280;54877;51.504;3.894;2024-01-06T07:22:14;101028.31;;;8.56;73.18
66398;BME280;54877;51.504;3.894;2024-01-06T07:24:41;101042.50;;;8.53;73.11
66398;BME280;54877;51.504;3.894;2024-01-06T07:27:07;101041.63;;;8.53;73.21
66398;BME280;54877;51.504;3.894;2024-01-06T07:29:32;101049.13;;;8.63;73.03
66398;BME280;54877;51.504;3.894;2024-01-06T07:31:57;101054.72;;;8.56;73.24
66398;BME280;54877;51.504;3.894;2024-01-06T07:34:23;101066.09;;;8.56;73.26
66398;BME280;54877;51.504;3.894;2024-01-06T07:36:50;101058.44;;;8.50;73.10
66398;BME280;54877;51.504;3.894;2024-01-06T07:39:15;101058.81;;;8.40;73.31
66398;BME280;54877;51.504;3.894;2024-01-06T07:41:40;101073.56;;;8.45;72.84
66398;BME280;54877;51.504;3.894;2024-01-06T07:44:06;101072.94;;;8.39;73.09
66398;BME280;54877;51.504;3.894;2024-01-06T07:46:31;101076.28;;;8.44;72.56
66398;BME280;54877;51.504;3.894;2024-01-06T07:48:57;101075.88;;;8.31;72.88
66398;BME280;54877;51.504;3.894;2024-01-06T07:51:22;101076.38;;;8.41;72.86
66398;BME280;54877;51.504;3.894;2024-01-06T07:53:47;101092.00;;;8.47;72.67
66398;BME280;54877;51.504;3.894;2024-01-06T07:56:13;101090.16;;;8.49;72.50
66398;BME280;54877;51.504;3.894;2024-01-06T07:58:38;101097.03;;;8.53;72.45
66398;BME280;54877;51.504;3.894;2024-01-06T08:01:03;101098.84;;;8.51;71.99
66398;BME280;54877;51.504;3.894;2024-01-06T08:03:29;101101.00;;;8.41;72.09
66398;BME280;54877;51.504;3.894;2024-01-06T08:05:54;101115.06;;;8.42;72.03
66398;BME280;54877;51.504;3.894;2024-01-06T08:08:19;101111.47;;;8.43;72.18
66398;BME280;54877;51.504;3.894;2024-01-06T08:10:45;101116.59;;;8.47;72.22
66398;BME280;54877;51.504;3.894;2024-01-06T08:13:11;101128.28;;;8.40;72.44
66398;BME280;54877;51.504;3.894;2024-01-06T08:15:36;101128.34;;;8.39;72.55
66398;BME280;54877;51.504;3.894;2024-01-06T08:18:02;101139.91;;;8.35;72.75
66398;BME280;54877;51.504;3.894;2024-01-06T08:20:28;101136.47;;;8.33;72.79
66398;BME280;54877;51.504;3.894;2024-01-06T08:22:54;101147.50;;;8.44;72.87
66398;BME280;54877;51.504;3.894;2024-01-06T08:25:19;101140.78;;;8.35;72.52
66398;BME280;54877;51.504;3.894;2024-01-06T08:27:45;101145.72;;;8.19;72.39
66398;BME280;54877;51.504;3.894;2024-01-06T08:30:10;101144.16;;;8.14;71.99
66398;BME280;54877;51.504;3.894;2024-01-06T08:32:36;101149.34;;;8.15;72.55
66398;BME280;54877;51.504;3.894;2024-01-06T08:35:02;101151.28;;;8.10;72.58
66398;BME280;54877;51.504;3.894;2024-01-06T08:37:27;101160.56;;;8.22;72.60
66398;BME280;54877;51.504;3.894;2024-01-06T08:39:53;101155.50;;;8.16;72.53
66398;BME280;54877;51.504;3.894;2024-01-06T08:42:18;101159.91;;;8.15;72.48
66398;BME280;54877;51.504;3.894;2024-01-06T08:44:43;101165.97;;;8.17;72.41
66398;BME280;54877;51.504;3.894;2024-01-06T08:47:09;101158.84;;;8.21;72.71
66398;BME280;54877;51.504;3.894;2024-01-06T08:49:34;101168.19;;;8.05;72.38
66398;BME280;54877;51.504;3.894;2024-01-06T08:52:00;101177.66;;;8.10;72.00
66398;BME280;54877;51.504;3.894;2024-01-06T08:54:25;101175.94;;;8.09;72.06
66398;BME280;54877;51.504;3.894;2024-01-06T08:56:50;101183.75;;;8.12;72.07
66398;BME280;54877;51.504;3.894;2024-01-06T08:59:16;101182.25;;;8.05;71.20
66398;BME280;54877;51.504;3.894;2024-01-06T09:01:41;101186.81;;;8.00;70.93
66398;BME280;54877;51.504;3.894;2024-01-06T09:04:07;101188.22;;;8.10;70.25
66398;BME280;54877;51.504;3.894;2024-01-06T09:06:32;101195.00;;;8.17;70.05
66398;BME280;54877;51.504;3.894;2024-01-06T09:08:58;101189.94;;;8.11;69.83
66398;BME280;54877;51.504;3.894;2024-01-06T09:11:23;101202.00;;;8.18;69.35
66398;BME280;54877;51.504;3.894;2024-01-06T09:13:49;101197.69;;;8.16;68.98
66398;BME280;54877;51.504;3.894;2024-01-06T09:16:17;101204.91;;;8.11;68.89
66398;BME280;54877;51.504;3.894;2024-01-06T09:18:43;101216.63;;;8.28;68.88
66398;BME280;54877;51.504;3.894;2024-01-06T09:21:08;101220.88;;;8.33;68.33
66398;BME280;54877;51.504;3.894;2024-01-06T09:23:34;101222.72;;;8.31;68.80
66398;BME280;54877;51.504;3.894;2024-01-06T09:25:59;101225.41;;;8.29;68.72
66398;BME280;54877;51.504;3.894;2024-01-06T09:28:24;101227.22;;;8.27;69.14
66398;BME280;54877;51.504;3.894;2024-01-06T09:30:50;101238.06;;;8.18;69.07
66398;BME280;54877;51.504;3.894;2024-01-06T09:33:17;101236.47;;;8.12;69.33
66398;BME280;54877;51.504;3.894;2024-01-06T09:35:43;101237.31;;;8.14;69.26
66398;BME280;54877;51.504;3.894;2024-01-06T09:38:09;101251.22;;;8.19;69.38
66398;BME280;54877;51.504;3.894;2024-01-06T09:40:35;101245.44;;;8.08;69.09
66398;BME280;54877;51.504;3.894;2024-01-06T09:43:06;101255.66;;;8.17;68.96
66398;BME280;54877;51.504;3.894;2024-01-06T09:45:31;101264.22;;;8.24;69.00
66398;BME280;54877;51.504;3.894;2024-01-06T09:47:56;101265.28;;;8.18;68.91
66398;BME280;54877;51.504;3.894;2024-01-06T09:50:23;101268.09;;;8.14;69.06
66398;BME280;54877;51.504;3.894;2024-01-06T09:52:49;101276.81;;;8.16;68.98
66398;BME280;54877;51.504;3.894;2024-01-06T09:55:19;101269.81;;;8.15;69.58
66398;BME280;54877;51.504;3.894;2024-01-06T09:57:53;101274.97;;;8.18;69.18
66398;BME280;54877;51.504;3.894;2024-01-06T10:00:19;101283.75;;;8.18;69.14
66398;BME280;54877;51.504;3.894;2024-01-06T10:02:46;101285.59;;;8.16;69.51
66398;BME280;54877;51.504;3.894;2024-01-06T10:05:14;101286.19;;;8.24;69.32
66398;BME280;54877;51.504;3.894;2024-01-06T10:07:41;101293.97;;;8.29;69.08
66398;BME280;54877;51.504;3.894;2024-01-06T10:10:08;101292.81;;;8.38;69.06
66398;BME280;54877;51.504;3.894;2024-01-06T10:12:35;101294.47;;;8.42;68.78
66398;BME280;54877;51.504;3.894;2024-01-06T10:15:02;101293.63;;;8.40;68.62
66398;BME280;54877;51.504;3.894;2024-01-06T10:17:28;101300.69;;;8.39;68.65
66398;BME280;54877;51.504;3.894;2024-01-06T10:19:53;101304.31;;;8.37;68.69
66398;BME280;54877;51.504;3.894;2024-01-06T10:22:19;101301.97;;;8.27;68.61
66398;BME280;54877;51.504;3.894;2024-01-06T10:24:45;101298.88;;;8.41;68.47
66398;BME280;54877;51.504;3.894;2024-01-06T10:27:11;101308.56;;;8.41;68.48
66398;BME280;54877;51.504;3.894;2024-01-06T10:29:36;101302.56;;;8.36;68.70
66398;BME280;54877;51.504;3.894;2024-01-06T10:32:01;101309.22;;;8.47;68.29
66398;BME280;54877;51.504;3.894;2024-01-06T10:34:28;101306.09;;;8.35;67.84
66398;BME280;54877;51.504;3.894;2024-01-06T10:36:54;101310.59;;;8.33;68.47
66398;BME280;54877;51.504;3.894;2024-01-06T10:39:20;101312.00;;;8.43;67.96
66398;BME280;54877;51.504;3.894;2024-01-06T10:41:46;101322.34;;;8.49;67.81
66398;BME280;54877;51.504;3.894;2024-01-06T10:44:14;101321.94;;;8.35;67.87
66398;BME280;54877;51.504;3.894;2024-01-06T10:46:40;101323.59;;;8.37;67.65
66398;BME280;54877;51.504;3.894;2024-01-06T10:49:07;101327.81;;;8.43;67.33
66398;BME280;54877;51.504;3.894;2024-01-06T10:51:36;101330.22;;;8.50;67.40
66398;BME280;54877;51.504;3.894;2024-01-06T10:54:02;101331.94;;;8.51;66.83
66398;BME280;54877;51.504;3.894;2024-01-06T10:56:29;101332.91;;;8.49;66.94
66398;BME280;54877;51.504;3.894;2024-01-06T10:58:55;101336.34;;;8.51;67.10
66398;BME280;54877;51.504;3.894;2024-01-06T11:01:22;101330.84;;;8.58;66.83
66398;BME280;54877;51.504;3.894;2024-01-06T11:03:52;101330.22;;;8.50;66.80
66398;BME280;54877;51.504;3.894;2024-01-06T11:06:19;101335.03;;;8.38;65.73
66398;BME280;54877;51.504;3.894;2024-01-06T11:11:34;101338.94;;;8.24;66.35
66398;BME280;54877;51.504;3.894;2024-01-06T11:14:19;101341.69;;;8.21;66.70
66398;BME280;54877;51.504;3.894;2024-01-06T11:16:52;101348.41;;;8.32;66.22
66398;BME280;54877;51.504;3.894;2024-01-06T11:24:44;101354.22;;;8.43;66.42
66398;BME280;54877;51.504;3.894;2024-01-06T11:27:26;101352.31;;;8.48;66.28
66398;BME280;54877;51.504;3.894;2024-01-06T11:29:56;101354.53;;;8.34;65.92
66398;BME280;54877;51.504;3.894;2024-01-06T11:32:30;101354.53;;;8.34;65.98
66398;BME280;54877;51.504;3.894;2024-01-06T11:35:04;101354.56;;;8.32;65.80
66398;BME280;54877;51.504;3.894;2024-01-06T11:42:46;101363.44;;;8.30;65.38
66398;BME280;54877;51.504;3.894;2024-01-06T11:45:32;101364.44;;;8.25;65.49
66398;BME280;54877;51.504;3.894;2024-01-06T11:48:05;101358.41;;;8.20;65.51
66398;BME280;54877;51.504;3.894;2024-01-06T11:50:32;101354.88;;;8.21;65.48
66398;BME280;54877;51.504;3.894;2024-01-06T11:52:59;101365.31;;;8.24;65.34
66398;BME280;54877;51.504;3.894;2024-01-06T11:55:25;101356.56;;;8.24;65.73
66398;BME280;54877;51.504;3.894;2024-01-06T11:57:56;101361.41;;;8.38;65.46
66398;BME280;54877;51.504;3.894;2024-01-06T12:00:23;101368.63;;;8.33;65.27
66398;BME280;54877;51.504;3.894;2024-01-06T12:02:48;101368.53;;;8.36;65.36
66398;BME280;54877;51.504;3.894;2024-01-06T12:05:17;101371.31;;;8.31;65.10
66398;BME280;54877;51.504;3.894;2024-01-06T12:07:43;101375.47;;;8.38;64.99
66398;BME280;54877;51.504;3.894;2024-01-06T12:10:19;101361.59;;;8.32;64.94
66398;BME280;54877;51.504;3.894;2024-01-06T12:15:28;101356.50;;;8.25;64.75
66398;BME280;54877;51.504;3.894;2024-01-06T12:17:55;101357.34;;;8.27;64.75
66398;BME280;54877;51.504;3.894;2024-01-06T12:20:21;101358.63;;;8.14;65.06
66398;BME280;54877;51.504;3.894;2024-01-06T12:22:48;101361.22;;;8.16;64.88
66398;BME280;54877;51.504;3.894;2024-01-06T12:25:15;101362.00;;;8.18;64.88
66398;BME280;54877;51.504;3.894;2024-01-06T12:27:43;101360.25;;;8.18;64.99
66398;BME280;54877;51.504;3.894;2024-01-06T12:30:16;101369.03;;;8.19;64.79
66398;BME280;54877;51.504;3.894;2024-01-06T12:32:44;101367.25;;;8.19;64.85
66398;BME280;54877;51.504;3.894;2024-01-06T12:35:10;101361.78;;;8.25;64.74
66398;BME280;54877;51.504;3.894;2024-01-06T12:37:36;101359.06;;;8.28;65.61
66398;BME280;54877;51.504;3.894;2024-01-06T12:40:02;101354.53;;;8.34;65.74
66398;BME280;54877;51.504;3.894;2024-01-06T12:42:27;101360.41;;;8.42;66.09
66398;BME280;54877;51.504;3.894;2024-01-06T12:44:53;101360.88;;;8.54;66.31
66398;BME280;54877;51.504;3.894;2024-01-06T12:47:18;101366.94;;;8.56;65.86
66398;BME280;54877;51.504;3.894;2024-01-06T12:49:44;101367.72;;;8.60;66.07
66398;BME280;54877;51.504;3.894;2024-01-06T12:52:09;101370.88;;;8.45;66.48
66398;BME280;54877;51.504;3.894;2024-01-06T12:54:34;101378.00;;;8.41;66.71
66398;BME280;54877;51.504;3.894;2024-01-06T12:57:00;101373.50;;;8.45;67.04
66398;BME280;54877;51.504;3.894;2024-01-06T12:59:25;101366.50;;;8.44;66.78
66398;BME280;54877;51.504;3.894;2024-01-06T13:01:50;101371.16;;;8.36;66.96
66398;BME280;54877;51.504;3.894;2024-01-06T13:04:16;101366.50;;;8.44;66.89
66398;BME280;54877;51.504;3.894;2024-01-06T13:06:42;101371.34;;;8.30;67.18